Time;durP1;ratioP1;P1;durP2;ratioP2;P2;SDS_P1;SDS_P2;PMS_P1;PMS_P2;Temp;Humidity;BMP_temperature;BMP_pressure;BME280_temperature;BME280_humidity;BME280_pressure;Samples;Min_cycle;Max_cycle;Signal;HPM_P1;HPM_P2
2021/08/28 00:01:52;;;;;;;2.05;1.85;;;;;;;15.83;78.36;99696.16;4956695;28;20055;-84
2021/08/28 00:04:18;;;;;;;3.75;2.50;;;;;;;15.83;78.28;99684.81;4956263;28;20052;-84
2021/08/28 00:06:46;;;;;;;4.00;2.60;;;;;;;15.98;78.00;99686.19;4969237;28;20051;-83
2021/08/28 00:09:13;;;;;;;3.67;2.72;;;;;;;15.83;78.43;99680.38;4975718;28;20479;-83
2021/08/28 00:11:40;;;;;;;3.65;2.70;;;;;;;15.80;78.40;99688.50;4975818;28;20046;-82
2021/08/28 00:14:07;;;;;;;6.20;3.00;;;;;;;15.80;78.59;99695.56;4974085;28;20105;-82
2021/08/28 00:16:33;;;;;;;5.63;3.13;;;;;;;15.74;78.77;99690.78;4974707;28;20043;-82
2021/08/28 00:19:00;;;;;;;5.10;3.28;;;;;;;15.73;78.98;99684.69;4975879;28;20070;-82
2021/08/28 00:21:27;;;;;;;5.68;3.53;;;;;;;15.82;78.38;99689.22;4974283;28;20094;-81
2021/08/28 00:23:54;;;;;;;8.05;2.90;;;;;;;15.78;78.59;99693.06;4975291;28;20435;-82
2021/08/28 00:26:20;;;;;;;5.53;3.42;;;;;;;15.67;79.04;99696.53;4975298;28;20101;-82
2021/08/28 00:28:47;;;;;;;4.13;3.08;;;;;;;15.50;79.92;99689.13;4975817;28;20047;-80
2021/08/28 00:31:14;;;;;;;8.07;4.10;;;;;;;15.54;79.84;99692.34;4975360;28;20051;-80
2021/08/28 00:33:41;;;;;;;5.05;3.70;;;;;;;15.53;80.10;99688.06;4975502;28;20039;-81
2021/08/28 00:36:07;;;;;;;6.07;3.75;;;;;;;15.62;79.88;99689.94;4973776;28;20043;-84
2021/08/28 00:38:34;;;;;;;8.32;4.47;;;;;;;15.58;79.99;99686.72;4974880;28;20043;-83
2021/08/28 00:41:01;;;;;;;6.53;4.63;;;;;;;15.74;79.34;99688.16;4973487;28;20043;-83
2021/08/28 00:43:29;;;;;;;8.80;4.10;;;;;;;15.82;78.89;99688.38;4990046;28;20556;-81
2021/08/28 00:45:56;;;;;;;6.47;4.32;;;;;;;15.83;79.14;99688.25;4975213;28;20046;-81
2021/08/28 00:48:22;;;;;;;8.50;4.15;;;;;;;15.86;79.55;99685.38;4973817;28;20054;-81
2021/08/28 00:50:49;;;;;;;6.68;3.92;;;;;;;15.80;79.43;99680.63;4990145;28;20568;-81
2021/08/28 00:53:17;;;;;;;6.00;4.00;;;;;;;15.87;78.75;99681.81;4973396;28;20073;-81
2021/08/28 00:55:49;;;;;;;6.20;4.25;;;;;;;15.71;80.00;99681.34;4973870;28;20063;-81
2021/08/28 00:58:17;;;;;;;10.02;4.22;;;;;;;15.70;80.06;99677.88;4974640;28;20408;-82
2021/08/28 01:00:50;;;;;;;7.38;4.68;;;;;;;15.66;79.80;99679.13;4973596;28;20153;-82
2021/08/28 01:03:22;;;;;;;7.32;4.45;;;;;;;15.79;79.63;99678.13;4974669;28;20050;-81
2021/08/28 01:06:17;;;;;;;5.63;3.40;;;;;;;15.73;79.94;99670.72;4974650;28;20070;-81
2021/08/28 01:09:16;;;;;;;6.25;3.63;;;;;;;15.81;79.66;99665.69;4975264;28;20489;-81
2021/08/28 01:12:25;;;;;;;7.13;3.63;;;;;;;15.86;78.99;99660.88;4981114;28;20047;-83
2021/08/28 01:15:07;;;;;;;4.72;3.25;;;;;;;15.94;79.13;99661.09;4989338;28;20043;-83
2021/08/28 01:17:37;;;;;;;7.22;3.80;;;;;;;15.69;79.58;99655.19;4973357;28;20134;-83
2021/08/28 01:20:06;;;;;;;7.60;3.85;;;;;;;15.63;80.52;99658.31;4973049;28;20049;-83
2021/08/28 01:22:51;;;;;;;8.10;5.13;;;;;;;15.86;79.70;99663.50;4974818;28;20062;-83
2021/08/28 01:25:50;;;;;;;7.97;4.03;;;;;;;15.80;79.94;99664.84;4988869;28;20058;-83
2021/08/28 01:28:23;;;;;;;10.82;4.30;;;;;;;15.92;80.15;99665.63;4973346;28;20043;-81
2021/08/28 01:30:51;;;;;;;7.53;4.22;;;;;;;15.93;79.77;99668.16;4972843;28;20054;-81
2021/08/28 01:33:20;;;;;;;9.60;4.05;;;;;;;15.92;79.39;99663.00;4974360;28;20051;-81
2021/08/28 01:35:51;;;;;;;6.32;4.07;;;;;;;15.84;79.99;99665.44;4989258;28;20049;-81
2021/08/28 01:38:27;;;;;;;4.90;3.95;;;;;;;15.88;79.67;99661.63;4989190;28;20134;-81
2021/08/28 01:41:01;;;;;;;6.78;3.97;;;;;;;15.81;80.33;99657.78;4989097;28;20054;-81
2021/08/28 01:43:29;;;;;;;6.22;4.55;;;;;;;15.81;80.38;99657.78;4973053;28;20524;-81
2021/08/28 01:46:02;;;;;;;8.23;4.22;;;;;;;15.78;80.81;99665.94;4989177;28;20439;-81
2021/08/28 01:48:31;;;;;;;7.28;4.00;;;;;;;15.79;80.71;99649.22;4988955;28;20047;-83
2021/08/28 01:51:00;;;;;;;5.82;3.75;;;;;;;15.81;81.06;99657.78;4973024;28;20085;-82
2021/08/28 01:53:32;;;;;;;10.27;4.90;;;;;;;15.83;80.61;99658.53;4988774;28;20054;-82
2021/08/28 01:55:59;;;;;;;8.10;4.72;;;;;;;15.79;80.65;99657.94;4988896;28;20054;-82
2021/08/28 01:58:29;;;;;;;9.10;4.25;;;;;;;15.90;80.26;99649.16;4988173;28;20497;-82
2021/08/28 02:01:11;;;;;;;6.90;4.33;;;;;;;15.80;80.72;99648.25;4973916;28;20513;-82
2021/08/28 02:03:44;;;;;;;8.32;4.70;;;;;;;15.76;81.14;99657.31;4972528;28;20320;-82
2021/08/28 02:06:19;;;;;;;7.47;5.07;;;;;;;16.00;79.89;99651.88;4973995;28;20482;-82
2021/08/28 02:08:49;;;;;;;;;;;;;;;15.92;80.16;99663.00;4988938;28;20051;-83
2021/08/28 02:11:41;;;;;;;8.50;4.30;;;;;;;15.84;80.80;99652.31;4972631;28;19933;-80
2021/08/28 02:14:15;;;;;;;7.15;5.00;;;;;;;15.75;81.43;99651.25;4972088;28;20130;-81
2021/08/28 02:16:44;;;;;;;7.25;4.93;;;;;;;15.67;81.99;99641.38;4972500;28;20558;-81
2021/08/28 02:19:19;;;;;;;9.90;6.25;;;;;;;15.76;81.83;99641.56;4972107;28;20074;-81
2021/08/28 02:22:22;;;;;;;11.40;6.70;;;;;;;15.83;81.45;99642.75;4974647;28;20057;-81
2021/08/28 02:25:37;;;;;;;;;;;;;;;15.82;81.62;99643.69;4973529;28;20050;-80
2021/08/28 02:28:06;;;;;;;9.73;5.43;;;;;;;15.84;81.00;99652.31;4988721;28;19953;-80
2021/08/28 02:30:35;;;;;;;8.55;5.97;;;;;;;15.87;80.70;99658.16;4988225;28;20047;-79
2021/08/28 02:33:08;;;;;;;9.88;5.22;;;;;;;16.03;79.97;99646.38;4972259;28;20082;-80
2021/08/28 02:35:43;;;;;;;9.20;5.80;;;;;;;15.78;80.98;99648.38;4971977;28;20051;-80
2021/08/28 02:38:10;;;;;;;8.05;6.10;;;;;;;16.03;80.16;99641.09;4972229;28;20090;-80
2021/08/28 02:40:39;;;;;;;10.80;5.63;;;;;;;15.89;81.13;99644.88;4971802;28;20047;-81
2021/08/28 02:43:08;;;;;;;7.13;5.15;;;;;;;16.00;80.74;99639.56;4970909;28;20046;-80
2021/08/28 02:45:36;;;;;;;7.88;4.80;;;;;;;15.82;81.80;99648.94;4969008;28;20402;-81
2021/08/28 02:48:06;;;;;;;6.20;4.15;;;;;;;15.43;83.74;99638.03;4970260;28;20030;-81
2021/08/28 02:50:35;;;;;;;5.05;3.72;;;;;;;15.50;83.99;99647.13;4968791;28;20075;-81
2021/08/28 02:53:05;;;;;;;8.50;4.90;;;;;;;15.38;84.52;99638.41;4972325;28;20121;-81
2021/08/28 02:55:33;;;;;;;9.38;5.43;;;;;;;15.51;83.96;99633.03;4971610;28;20054;-81
2021/08/28 02:58:00;;;;;;;7.95;4.82;;;;;;;15.63;83.36;99625.97;4966340;28;20176;-82
2021/08/28 03:00:30;;;;;;;6.53;4.97;;;;;;;15.52;83.95;99624.16;4976435;28;20101;-81
2021/08/28 03:02:58;;;;;;;5.70;4.63;;;;;;;15.31;84.92;99620.63;4972900;28;20046;-81
2021/08/28 03:05:25;;;;;;;6.30;5.03;;;;;;;15.24;85.67;99620.28;4959987;28;20047;-80
2021/08/28 03:07:58;;;;;;;6.32;4.93;;;;;;;15.14;85.94;99617.56;4980833;28;20490;-81
2021/08/28 03:10:28;;;;;;;6.07;4.97;;;;;;;15.15;86.17;99618.38;4971358;28;20090;-81
2021/08/28 03:12:55;;;;;;;7.45;4.68;;;;;;;15.12;86.36;99616.81;4975059;28;20101;-81
2021/08/28 03:15:21;;;;;;;5.82;5.15;;;;;;;15.17;86.06;99624.34;4976492;28;20057;-81
2021/08/28 03:18:10;;;;;;;9.65;5.20;;;;;;;15.18;86.02;99619.00;4975142;28;20035;-83
2021/08/28 03:20:42;;;;;;;6.70;5.22;;;;;;;15.24;85.71;99624.72;4980283;28;20039;-81
2021/08/28 03:23:14;;;;;;;6.65;4.75;;;;;;;15.09;87.18;99618.88;4975316;28;20047;-80
2021/08/28 03:25:43;;;;;;;8.40;5.70;;;;;;;15.18;86.42;99623.41;4975170;28;20125;-80
2021/08/28 03:28:12;;;;;;;5.65;4.32;;;;;;;15.18;86.19;99631.28;4976526;28;20042;-80
2021/08/28 03:30:43;;;;;;;8.38;4.72;;;;;;;15.22;86.14;99634.47;4991993;28;20077;-83
2021/08/28 03:33:15;;;;;;;9.00;4.20;;;;;;;15.19;86.24;99632.94;4991289;28;20042;-81
2021/08/28 03:35:48;;;;;;;5.18;3.65;;;;;;;15.20;86.28;99632.81;4974947;28;20494;-82
2021/08/28 03:38:15;;;;;;;6.28;4.53;;;;;;;15.21;86.36;99620.53;4991539;28;20053;-82
2021/08/28 03:40:45;;;;;;;7.97;4.97;;;;;;;15.28;85.66;99626.13;4974944;28;20129;-82
2021/08/28 03:43:12;;;;;;;6.65;5.07;;;;;;;15.32;85.57;99627.56;4967874;28;20035;-83
2021/08/28 03:45:39;;;;;;;6.38;5.32;;;;;;;15.41;85.19;99632.06;4956817;28;20054;-81
2021/08/28 03:48:07;;;;;;;7.38;4.65;;;;;;;15.45;85.23;99633.50;4979718;28;20065;-81
2021/08/28 03:50:36;;;;;;;5.75;4.40;;;;;;;15.33;85.31;99642.34;4974807;28;20066;-80
2021/08/28 03:53:04;;;;;;;6.00;4.60;;;;;;;15.39;84.95;99647.09;4974429;28;20047;-80
2021/08/28 03:55:31;;;;;;;7.78;3.55;;;;;;;15.48;84.53;99648.19;4990903;28;20043;-79
2021/08/28 03:57:58;;;;;;;5.80;4.85;;;;;;;15.46;84.55;99643.88;4972435;28;20047;-80
2021/08/28 04:00:28;;;;;;;6.60;5.18;;;;;;;15.58;83.96;99638.59;4955323;28;20055;-80
2021/08/28 04:02:57;;;;;;;8.77;5.35;;;;;;;15.57;83.97;99637.78;4971095;28;20057;-80
2021/08/28 04:05:26;;;;;;;7.28;5.53;;;;;;;15.56;84.13;99646.63;4955605;29;20039;-80
2021/08/28 04:07:53;;;;;;;7.07;5.18;;;;;;;15.50;84.53;99636.59;4954941;28;20039;-81
2021/08/28 04:10:20;;;;;;;7.07;5.43;;;;;;;15.59;83.79;99656.88;4986486;28;20043;-82
2021/08/28 04:12:48;;;;;;;6.13;4.38;;;;;;;15.39;85.58;99657.59;4987500;28;20055;-82
2021/08/28 04:15:17;;;;;;;6.53;5.28;;;;;;;15.33;86.17;99650.22;4974712;28;20509;-80
2021/08/28 04:18:02;;;;;;;6.88;5.18;;;;;;;15.32;85.92;99648.56;4975895;28;20201;-80
2021/08/28 04:20:30;;;;;;;7.32;4.63;;;;;;;15.28;86.17;99647.13;4974652;28;20039;-80
2021/08/28 04:23:04;;;;;;;5.78;4.63;;;;;;;15.33;86.66;99647.59;4980674;28;20052;-80
2021/08/28 04:26:00;;;;;;;8.45;5.53;;;;;;;15.51;85.85;99648.78;5013822;28;20381;-83
2021/08/28 04:28:32;;;;;;;9.93;4.93;;;;;;;15.59;86.20;99653.41;4975566;28;20520;-83
2021/08/28 04:30:59;;;;;;;6.10;5.07;;;;;;;15.68;84.96;99664.06;4975946;28;20043;-86
2021/08/28 04:33:27;;;;;;;7.90;5.53;;;;;;;15.51;86.24;99661.06;4958639;28;20106;-83
2021/08/28 04:35:54;;;;;;;7.80;5.93;;;;;;;15.90;83.84;99659.69;4957877;28;20081;-84
2021/08/28 04:38:21;;;;;;;7.78;5.63;;;;;;;15.92;83.83;99660.38;4967228;28;20038;-82
2021/08/28 04:40:53;;;;;;;8.10;3.95;;;;;;;16.29;81.18;99649.47;4971122;28;20054;-80
2021/08/28 04:43:23;;;;;;;14.18;3.33;;;;;;;16.54;79.59;99651.72;4989632;28;20109;-84
2021/08/28 04:46:06;;;;;;;5.93;3.20;;;;;;;16.57;79.80;99659.38;4988999;28;20051;-80
2021/08/28 04:48:38;;;;;;;3.47;2.80;;;;;;;16.46;79.33;99652.38;4974432;28;20039;-83
2021/08/28 04:51:20;;;;;;;6.80;3.30;;;;;;;16.60;79.15;99648.56;4988627;28;20039;-83
2021/08/28 04:53:46;;;;;;;8.27;3.08;;;;;;;16.62;78.22;99656.31;4988726;28;20109;-83
2021/08/28 04:56:13;;;;;;;5.50;2.85;;;;;;;16.54;78.70;99664.88;4988407;28;20030;-85
2021/08/28 04:58:40;;;;;;;3.70;2.65;;;;;;;16.75;78.34;99663.09;4972965;28;20043;-86
2021/08/28 05:01:25;;;;;;;3.90;2.78;;;;;;;16.66;78.00;99673.53;4972860;28;20049;-84
2021/08/28 05:04:12;;;;;;;6.28;2.70;;;;;;;16.62;78.55;99659.81;4969986;28;20537;-84
2021/08/28 05:06:38;;;;;;;5.32;3.22;;;;;;;16.58;78.57;99676.81;4972858;28;20039;-82
2021/08/28 05:09:08;;;;;;;6.40;4.00;;;;;;;16.39;79.75;99684.56;4966974;28;20523;-84
2021/08/28 05:11:36;;;;;;;10.75;7.00;;;;;;;16.28;81.28;99677.56;4979203;28;20129;-85
2021/08/28 05:14:03;;;;;;;9.90;7.63;;;;;;;15.97;83.58;99685.34;4988809;28;20489;-85
2021/08/28 05:16:31;;;;;;;13.02;8.32;;;;;;;16.01;83.85;99685.94;4988830;28;20130;-85
2021/08/28 05:18:58;;;;;;;12.13;8.65;;;;;;;15.83;85.91;99690.06;4989129;28;20441;-85
2021/08/28 05:21:25;;;;;;;8.80;6.85;;;;;;;15.47;88.21;99694.63;4989441;28;20039;-84
2021/08/28 05:24:17;;;;;;;8.95;6.65;;;;;;;15.68;87.40;99689.50;4953566;28;20376;-84
2021/08/28 05:26:46;;;;;;;9.18;6.65;;;;;;;15.51;88.17;99701.31;4977673;28;20075;-85
2021/08/28 05:29:13;;;;;;;8.73;6.32;;;;;;;15.56;87.86;99703.56;4953632;28;20102;-85
2021/08/28 05:31:40;;;;;;;7.72;6.93;;;;;;;15.32;89.41;99714.22;4972000;28;20089;-83
2021/08/28 05:34:10;;;;;;;10.90;5.72;;;;;;;15.98;85.40;99717.75;4979685;28;20468;-80
2021/08/28 05:36:55;;;;;;;11.88;6.35;;;;;;;16.40;82.30;99720.44;4965163;28;20058;-81
2021/08/28 05:39:42;;;;;;;7.85;6.32;;;;;;;15.48;87.28;99733.06;4966114;28;20051;-81
2021/08/28 05:42:10;;;;;;;8.52;6.53;;;;;;;15.62;86.96;99740.69;4973824;28;20053;-82
2021/08/28 05:44:37;;;;;;;10.05;6.90;;;;;;;15.30;88.23;99751.09;4958576;28;20031;-82
2021/08/28 05:47:04;;;;;;;8.00;6.10;;;;;;;16.18;83.78;99742.41;4964062;28;20414;-82
2021/08/28 05:49:31;;;;;;;10.15;7.15;;;;;;;15.89;84.14;99742.13;4974976;28;20034;-81
2021/08/28 05:52:04;;;;;;;8.27;6.30;;;;;;;15.91;84.36;99750.72;4965353;28;20426;-81
2021/08/28 05:54:31;;;;;;;8.05;6.78;;;;;;;15.98;84.10;99758.00;4978452;28;20069;-83
2021/08/28 05:56:58;;;;;;;9.07;7.90;;;;;;;16.10;83.73;99761.44;4962671;28;20036;-81
2021/08/28 05:59:24;;;;;;;8.88;7.20;;;;;;;15.96;84.11;99764.31;4957601;28;20331;-81
2021/08/28 06:01:52;;;;;;;8.15;6.60;;;;;;;15.97;84.47;99768.63;4960144;28;20098;-83
2021/08/28 06:04:21;;;;;;;16.05;6.82;;;;;;;16.53;81.11;99768.47;4973992;28;20047;-82
2021/08/28 06:07:06;;;;;;;11.40;6.55;;;;;;;16.52;80.32;99766.78;4963305;28;20504;-83
2021/08/28 06:10:05;;;;;;;9.27;7.05;;;;;;;15.97;82.75;99760.72;4968437;28;20081;-81
2021/08/28 06:12:34;;;;;;;9.95;6.80;;;;;;;16.31;81.76;99758.03;4956569;28;20051;-83
2021/08/28 06:15:15;;;;;;;12.87;6.63;;;;;;;16.53;81.01;99757.94;4958685;28;20039;-84
2021/08/28 06:17:47;;;;;;;6.97;6.18;;;;;;;16.39;79.58;99769.56;4959543;28;20070;-82
2021/08/28 06:20:15;;;;;;;10.05;6.40;;;;;;;16.55;79.20;99766.53;4966859;28;20125;-82
2021/08/28 06:22:42;;;;;;;8.65;6.03;;;;;;;16.44;79.95;99772.66;4979474;28;20047;-82
2021/08/28 06:25:10;;;;;;;9.88;6.40;;;;;;;16.37;79.33;99765.41;4981091;28;20494;-84
2021/08/28 06:27:37;;;;;;;6.50;5.47;;;;;;;16.26;79.73;99775.97;4967442;28;20134;-85
2021/08/28 06:30:10;;;;;;;10.18;6.43;;;;;;;16.48;78.78;99776.72;4966931;28;20043;-83
2021/08/28 06:32:37;;;;;;;7.13;5.53;;;;;;;16.35;78.89;99772.56;4970224;28;20494;-85
2021/08/28 06:35:05;;;;;;;6.80;5.30;;;;;;;16.50;77.79;99773.97;4977533;28;20097;-84
2021/08/28 06:37:36;;;;;;;7.88;5.93;;;;;;;16.48;77.08;99783.78;4969440;28;20046;-85
2021/08/28 06:40:21;;;;;;;6.25;5.40;;;;;;;16.37;77.71;99789.09;4963706;28;20086;-86
2021/08/28 06:43:06;;;;;;;8.07;5.45;;;;;;;16.15;77.66;99790.00;4963922;28;20231;-82
2021/08/28 06:45:53;;;;;;;11.32;5.20;;;;;;;16.23;77.67;99791.03;4971043;28;20061;-83
2021/08/28 06:48:39;;;;;;;9.40;5.57;;;;;;;16.27;77.46;99789.00;4971758;28;20050;-86
2021/08/28 06:51:26;;;;;;;7.53;5.80;;;;;;;16.14;78.45;99790.94;4978488;28;20062;-85
2021/08/28 06:54:22;;;;;;;6.97;5.78;;;;;;;16.33;77.22;99792.91;4956997;29;20490;-83
2021/08/28 06:57:07;;;;;;;10.38;5.13;;;;;;;16.40;75.87;99804.59;4956814;29;20050;-84
2021/08/28 06:59:52;;;;;;;5.82;5.20;;;;;;;16.37;75.72;99795.19;4957517;28;20258;-84
2021/08/28 07:02:41;;;;;;;7.47;5.50;;;;;;;16.49;75.67;99794.19;4956823;29;20051;-83
2021/08/28 07:05:08;;;;;;;7.95;4.40;;;;;;;16.59;74.44;99801.31;4956642;28;20066;-83
2021/08/28 07:07:46;;;;;;;8.45;5.85;;;;;;;16.69;74.45;99805.72;4955946;28;20047;-83
2021/08/28 07:10:12;;;;;;;7.18;4.70;;;;;;;16.55;75.67;99808.63;4956483;28;20066;-82
2021/08/28 07:12:40;;;;;;;9.73;5.43;;;;;;;16.63;75.89;99819.38;4955946;28;20130;-83
2021/08/28 07:15:09;;;;;;;8.32;5.97;;;;;;;16.87;75.21;99815.69;4956611;28;20074;-83
2021/08/28 07:17:51;;;;;;;10.98;6.10;;;;;;;16.87;74.60;99816.53;4942176;29;20071;-81
2021/08/28 07:20:18;;;;;;;7.72;4.95;;;;;;;16.87;74.13;99815.69;4956254;29;20518;-81
2021/08/28 07:22:47;;;;;;;7.03;5.05;;;;;;;16.86;74.53;99821.94;4962309;28;20118;-81
2021/08/28 07:25:37;;;;;;;7.95;5.18;;;;;;;17.01;73.45;99820.66;4976423;28;20073;-81
2021/08/28 07:28:09;;;;;;;7.95;5.15;;;;;;;16.85;74.03;99825.53;4976670;28;20103;-81
2021/08/28 07:31:02;;;;;;;11.02;6.13;;;;;;;16.96;73.95;99820.22;4983996;28;20058;-82
2021/08/28 07:33:30;;;;;;;8.95;5.53;;;;;;;16.94;74.00;99811.63;4975096;28;20099;-82
2021/08/28 07:35:56;;;;;;;9.50;6.07;;;;;;;17.08;73.19;99803.38;4974675;28;20043;-80
2021/08/28 07:38:23;;;;;;;7.50;4.65;;;;;;;17.18;72.55;99798.19;4975098;28;20095;-81
2021/08/28 07:40:52;;;;;;;10.82;5.20;;;;;;;17.33;72.12;99802.16;4974756;28;20046;-82
2021/08/28 07:43:20;;;;;;;6.90;5.30;;;;;;;17.17;72.62;99805.25;4975147;28;20106;-82
2021/08/28 07:45:52;;;;;;;6.82;4.63;;;;;;;17.30;72.01;99802.41;4974824;28;20049;-80
2021/08/28 07:48:25;;;;;;;6.93;5.07;;;;;;;17.48;71.16;99792.94;4972455;28;20063;-80
2021/08/28 07:50:53;;;;;;;10.02;4.97;;;;;;;17.75;70.40;99789.75;4967703;28;20058;-81
2021/08/28 07:53:22;;;;;;;7.65;4.78;;;;;;;17.78;69.87;99781.56;4980270;28;20047;-81
2021/08/28 07:55:55;;;;;;;5.65;4.82;;;;;;;18.30;67.91;99792.78;4990826;28;20126;-82
2021/08/28 07:58:23;;;;;;;6.55;4.40;;;;;;;18.45;67.59;99789.75;4973424;28;20421;-82
2021/08/28 08:00:50;;;;;;;9.07;4.72;;;;;;;18.85;65.79;99794.91;4970605;28;20047;-88
2021/08/28 08:03:17;;;;;;;6.05;4.20;;;;;;;19.05;64.67;99785.13;4988306;28;20372;-85
2021/08/28 08:06:05;;;;;;;6.05;4.57;;;;;;;19.61;62.57;99781.69;4981628;28;20048;-86
2021/08/28 08:08:56;;;;;;;5.82;4.93;;;;;;;20.14;60.15;99786.28;4983382;28;20582;-84
2021/08/28 08:11:43;;;;;;;7.13;3.88;;;;;;;19.77;60.78;99775.75;4974399;28;20607;-87
2021/08/28 08:14:28;;;;;;;5.80;4.63;;;;;;;20.36;58.76;99771.75;4976266;28;20049;-86
2021/08/28 08:17:15;;;;;;;8.35;4.15;;;;;;;20.51;58.01;99770.28;4984701;28;20086;-86
2021/08/28 08:19:50;;;;;;;4.32;3.88;;;;;;;20.14;58.75;99778.34;4979502;28;20050;-86
2021/08/28 08:22:35;;;;;;;6.88;4.70;;;;;;;20.47;57.28;99776.88;4974984;28;20626;-87
2021/08/28 08:25:32;;;;;;;6.47;4.30;;;;;;;20.26;58.08;99777.13;4990754;28;20054;-85
2021/08/28 08:28:28;;;;;;;6.10;4.30;;;;;;;20.82;56.44;99775.16;4979241;28;20054;-84
2021/08/28 08:31:13;;;;;;;5.53;3.95;;;;;;;21.11;55.87;99769.59;4977142;28;20097;-86
2021/08/28 08:33:42;;;;;;;7.00;4.18;;;;;;;20.74;55.79;99775.94;4978704;28;20054;-86
2021/08/28 08:36:12;;;;;;;5.05;3.80;;;;;;;21.01;55.08;99745.00;4968010;28;20752;-83
2021/08/28 08:38:39;;;;;;;4.00;2.70;;;;;;;20.96;53.43;99760.53;4986469;28;20504;-80
2021/08/28 08:41:06;;;;;;;6.13;3.72;;;;;;;19.40;59.42;99768.66;4971260;28;20115;-81
2021/08/28 08:43:35;;;;;;;5.55;3.63;;;;;;;20.80;56.49;99770.03;4983866;28;20093;-83
2021/08/28 08:46:03;;;;;;;5.03;3.42;;;;;;;20.74;54.37;99765.34;4971308;28;20134;-81
2021/08/28 08:48:32;;;;;;;5.30;4.00;;;;;;;20.54;54.32;99763.84;4978811;28;20086;-81
2021/08/28 08:51:00;;;;;;;6.13;3.45;;;;;;;21.19;52.95;99761.66;4980318;28;20050;-85
2021/08/28 08:53:29;;;;;;;5.60;2.58;;;;;;;20.55;53.28;99768.97;4977921;28;20126;-86
2021/08/28 08:56:17;;;;;;;5.75;2.83;;;;;;;21.07;52.43;99762.91;4971240;28;20034;-81
2021/08/28 08:58:46;;;;;;;6.13;3.45;;;;;;;20.88;52.52;99758.66;4983751;28;20046;-86
2021/08/28 09:01:13;;;;;;;3.70;3.03;;;;;;;21.83;50.80;99749.72;4981926;28;20049;-83
2021/08/28 09:04:01;;;;;;;3.78;3.00;;;;;;;22.61;48.35;99740.59;4960933;28;20454;-88
2021/08/28 09:06:28;;;;;;;3.92;3.53;;;;;;;22.32;48.50;99741.91;4977062;28;20498;-87
2021/08/28 09:08:55;;;;;;;4.07;3.67;;;;;;;23.16;46.32;99747.84;4969234;28;20058;-88
2021/08/28 09:11:25;;;;;;;3.90;3.38;;;;;;;23.18;45.70;99749.38;4980054;28;20099;-87
2021/08/28 09:14:19;;;;;;;6.55;3.20;;;;;;;22.47;46.74;99747.38;4975978;28;20429;-84
2021/08/28 09:16:48;;;;;;;8.50;3.65;;;;;;;22.76;45.96;99754.88;4975572;28;20054;-86
2021/08/28 09:19:34;;;;;;;3.45;2.88;;;;;;;22.90;45.28;99767.50;4976622;28;20043;-86
2021/08/28 09:22:01;;;;;;;5.35;2.65;;;;;;;22.68;46.79;99762.84;4980298;28;20550;-87
2021/08/28 09:24:44;;;;;;;2.47;2.17;;;;;;;22.53;45.08;99767.16;4976479;28;20457;-85
2021/08/28 09:27:12;;;;;;;3.80;2.77;;;;;;;22.01;46.21;99770.03;4972107;28;20037;-85
2021/08/28 09:29:54;;;;;;;2.75;2.13;;;;;;;22.83;44.90;99770.97;4977273;28;20324;-87
2021/08/28 09:32:20;;;;;;;3.10;2.20;;;;;;;23.08;42.57;99763.84;4970120;28;20097;-86
2021/08/28 09:34:47;;;;;;;2.92;2.03;;;;;;;22.73;43.24;99768.47;4978013;28;20046;-84
2021/08/28 09:37:15;;;;;;;5.43;2.20;;;;;;;22.80;44.70;99772.16;4971194;28;20050;-86
2021/08/28 09:39:46;;;;;;;2.80;2.30;;;;;;;21.47;47.86;99770.31;4975888;28;20043;-87
2021/08/28 09:42:21;;;;;;;5.20;2.13;;;;;;;21.37;46.18;99773.09;4972827;28;20391;-85
2021/08/28 09:44:50;;;;;;;3.40;2.58;;;;;;;21.36;46.86;99766.13;4971657;28;20397;-89
2021/08/28 09:47:29;;;;;;;4.93;2.15;;;;;;;21.52;47.89;99768.03;4961551;28;20041;-89
2021/08/28 09:49:56;;;;;;;5.47;2.30;;;;;;;20.78;48.32;99774.66;4973569;28;20043;-86
2021/08/28 09:52:27;;;;;;;4.32;2.42;;;;;;;20.62;48.12;99778.00;4972121;28;20530;-87
2021/08/28 09:54:54;;;;;;;3.97;2.40;;;;;;;20.74;48.66;99775.09;4971363;28;20050;-87
2021/08/28 09:57:29;;;;;;;3.28;2.20;;;;;;;20.29;48.76;99776.81;4972577;28;20047;-86
2021/08/28 09:59:58;;;;;;;2.35;2.13;;;;;;;20.72;47.91;99782.34;4972980;28;20382;-86
2021/08/28 10:02:26;;;;;;;2.80;2.58;;;;;;;20.48;49.30;99780.34;4968245;28;20049;-85
2021/08/28 10:04:55;;;;;;;3.95;2.13;;;;;;;20.73;48.27;99786.69;4972590;28;20482;-86
2021/08/28 10:07:30;;;;;;;2.65;2.10;;;;;;;20.69;47.46;99780.84;4972997;28;20043;-86
2021/08/28 10:09:59;;;;;;;2.83;2.53;;;;;;;20.81;46.87;99784.91;4972923;28;20046;-86
2021/08/28 10:12:32;;;;;;;2.55;2.00;;;;;;;21.32;46.15;99775.38;4970759;28;20046;-85
2021/08/28 10:15:00;;;;;;;2.83;1.90;;;;;;;21.62;45.25;99770.53;4972751;28;20122;-86
2021/08/28 10:17:28;;;;;;;4.70;2.28;;;;;;;21.44;46.09;99763.50;4973159;28;20125;-86
2021/08/28 10:19:55;;;;;;;2.63;2.22;;;;;;;21.98;44.69;99764.03;4972369;28;20166;-86
2021/08/28 10:22:32;;;;;;;1.85;1.70;;;;;;;21.77;45.27;99760.97;4987248;28;20409;-86
2021/08/28 10:25:04;;;;;;;2.55;2.05;;;;;;;22.59;43.66;99762.03;4972263;28;20097;-87
2021/08/28 10:27:31;;;;;;;2.65;1.92;;;;;;;20.99;47.12;99768.19;4972833;28;20046;-87
2021/08/28 10:29:58;;;;;;;2.60;2.38;;;;;;;21.40;46.23;99759.50;4970339;28;20128;-87
2021/08/28 10:32:25;;;;;;;2.78;2.30;;;;;;;20.72;47.27;99766.47;4972775;28;20046;-86
2021/08/28 10:34:52;;;;;;;3.00;2.03;;;;;;;21.74;46.12;99745.41;4972343;28;20051;-87
2021/08/28 10:37:19;;;;;;;3.97;2.55;;;;;;;21.30;46.06;99729.63;4972467;28;20039;-87
2021/08/28 10:39:48;;;;;;;2.30;2.10;;;;;;;21.66;45.76;99729.44;4972132;28;20043;-84
2021/08/28 10:42:16;;;;;;;5.88;2.20;;;;;;;21.57;46.39;99722.44;4973016;28;20082;-89
2021/08/28 10:44:43;;;;;;;2.40;1.95;;;;;;;21.55;46.51;99719.97;4973422;28;20038;-85
2021/08/28 10:47:15;;;;;;;2.47;1.75;;;;;;;22.19;45.20;99715.00;4971560;28;20078;-91
2021/08/28 10:49:47;;;;;;;4.63;2.03;;;;;;;21.56;45.93;99724.25;4972229;28;20039;-90
2021/08/28 10:52:23;;;;;;;2.65;2.10;;;;;;;21.34;46.59;99725.66;4972690;28;20301;-92
2021/08/28 10:54:57;;;;;;;6.25;3.05;;;;;;;20.81;49.17;99726.66;4973331;28;20051;-90
2021/08/28 10:57:26;;;;;;;3.20;2.50;;;;;;;20.94;49.34;99720.97;4971982;28;20105;-91
2021/08/28 11:00:13;;;;;;;2.40;2.20;;;;;;;21.04;49.08;99715.53;4968306;28;20043;-90
2021/08/28 11:03:00;;;;;;;5.68;2.97;;;;;;;20.76;50.04;99718.34;4969381;28;20529;-90
2021/08/28 11:05:30;;;;;;;5.25;2.40;;;;;;;21.32;49.61;99717.06;4973084;28;20047;-87
2021/08/28 11:08:13;;;;;;;3.25;2.90;;;;;;;20.87;49.73;99719.91;4972416;28;20501;-91
2021/08/28 11:10:40;;;;;;;4.22;2.88;;;;;;;20.96;50.19;99713.66;4973086;28;20533;-88
2021/08/28 11:13:07;;;;;;;3.30;2.88;;;;;;;20.73;50.01;99721.31;4972348;28;20455;-86
2021/08/28 11:15:34;;;;;;;4.95;2.97;;;;;;;21.06;49.50;99718.88;4972950;28;20047;-84
2021/08/28 11:18:01;;;;;;;4.28;2.05;;;;;;;21.42;48.69;99706.34;4972841;28;20053;-87
2021/08/28 11:20:34;;;;;;;2.90;2.38;;;;;;;21.55;47.19;99711.19;4973078;28;20078;-86
2021/08/28 11:23:03;;;;;;;4.35;2.65;;;;;;;21.44;47.58;99709.66;4968419;28;20108;-88
2021/08/28 11:25:32;;;;;;;3.85;2.47;;;;;;;22.19;46.02;99720.31;4970020;28;20051;-88
2021/08/28 11:28:00;;;;;;;3.28;2.28;;;;;;;22.31;45.05;99719.00;4973178;28;20070;-89
2021/08/28 11:30:48;;;;;;;4.22;1.90;;;;;;;21.63;45.72;99729.78;4972784;28;20042;-91
2021/08/28 11:33:29;;;;;;;2.75;2.42;;;;;;;21.43;47.30;99718.59;4978250;28;20051;-96
2021/08/28 11:36:04;;;;;;;2.20;2.00;;;;;;;22.07;45.13;99732.22;4976256;28;20098;-89
2021/08/28 11:38:35;;;;;;;2.35;1.90;;;;;;;21.17;45.98;99735.31;4976724;28;20050;-90
2021/08/28 11:41:10;;;;;;;2.30;1.88;;;;;;;21.66;45.28;99724.16;4978139;28;20043;-94
2021/08/28 11:43:40;;;;;;;2.10;1.90;;;;;;;21.19;45.21;99728.03;4976937;28;20039;-89
2021/08/28 11:46:09;;;;;;;2.20;1.92;;;;;;;21.60;44.83;99732.75;4976672;28;20074;-89
2021/08/28 11:48:37;;;;;;;4.35;2.03;;;;;;;21.56;44.67;99726.91;4976769;28;20070;-91
2021/08/28 11:51:31;;;;;;;6.18;1.95;;;;;;;22.85;42.46;99718.47;4976011;28;20050;-89
2021/08/28 11:53:58;;;;;;;2.70;1.67;;;;;;;23.57;40.40;99723.78;4976380;28;20501;-90
2021/08/28 11:56:32;;;;;;;4.43;1.48;;;;;;;22.78;40.81;99728.97;4975842;28;20046;-89
2021/08/28 11:59:06;;;;;;;2.70;2.15;;;;;;;22.66;42.35;99720.50;4976181;28;20097;-90
2021/08/28 12:01:41;;;;;;;1.80;1.58;;;;;;;22.41;42.08;99719.66;4975263;28;20136;-90